Time,TemperatureF,DewpointF,PressureIn,WindDirection,WindDirectionDegrees,WindSpeedMPH,WindSpeedGustMPH,Humidity,HourlyPrecipIn,Conditions,Clouds,dailyrainin,SolarRadiationWatts/m^2,SoftwareType,DateUTC
2017-05-29 00:01:00,57.5,50.8,29.69,NNW,331,0.0,0.0,78,-99.99,,,-99.99,0.0,1-wire,2017-05-29 05:01:00,
2017-05-29 00:07:00,56.9,49.1,29.69,NNW,331,0.0,0.0,75,-99.99,,,-99.99,0.0,1-wire,2017-05-29 05:07:00,
2017-05-29 00:12:00,57.5,50.1,29.69,NNW,331,0.0,0.0,76,-99.99,,,-99.99,0.0,1-wire,2017-05-29 05:12:00,
2017-05-29 00:17:00,57.7,49.9,29.69,NNW,331,0.0,0.0,75,-99.99,,,-99.99,0.0,1-wire,2017-05-29 05:17:00,
2017-05-29 00:22:00,57.5,49.7,29.69,NNW,331,0.0,0.0,75,-99.99,,,-99.99,0.0,1-wire,2017-05-29 05:22:00,
2017-05-29 00:27:00,57.2,49.2,29.69,NNW,331,0.0,0.0,75,-99.99,,,-99.99,0.0,1-wire,2017-05-29 05:27:00,
2017-05-29 00:32:00,57.2,49.2,29.69,NNW,331,0.0,0.0,74,-99.99,,,-99.99,0.0,1-wire,2017-05-29 05:32:00,
2017-05-29 00:38:00,57.5,48.3,29.69,NNW,331,0.0,0.0,71,-99.99,,,-99.99,0.3,1-wire,2017-05-29 05:38:00,
2017-05-29 00:43:00,57.9,48.3,29.69,NNW,330,0.0,0.0,70,-99.99,,,-99.99,0.0,1-wire,2017-05-29 05:43:00,
2017-05-29 00:48:00,58.1,48.2,29.69,NNW,330,0.0,0.0,70,-99.99,,,-99.99,0.0,1-wire,2017-05-29 05:48:00,
2017-05-29 00:53:00,58.1,48.3,29.69,NNW,330,0.0,0.0,70,-99.99,,,-99.99,0.0,1-wire,2017-05-29 05:53:00,
2017-05-29 00:59:00,58.0,48.0,29.69,NNW,330,0.0,0.0,69,-99.99,,,-99.99,0.4,1-wire,2017-05-29 05:59:00,
2017-05-29 01:04:00,58.1,48.9,29.69,NNW,330,0.0,0.0,71,-99.99,,,-99.99,0.0,1-wire,2017-05-29 06:04:00,
2017-05-29 01:10:00,57.5,48.0,29.69,NNW,330,0.0,0.0,70,-99.99,,,-99.99,0.3,1-wire,2017-05-29 06:10:00,
2017-05-29 01:15:00,57.5,48.2,29.69,NNW,331,0.0,0.0,71,-99.99,,,-99.99,0.0,1-wire,2017-05-29 06:15:00,
2017-05-29 01:20:00,57.7,48.3,29.69,NNW,331,0.0,0.0,71,-99.99,,,-99.99,0.0,1-wire,2017-05-29 06:20:00,
2017-05-29 01:25:00,57.5,48.0,29.69,NNW,331,0.0,0.0,71,-99.99,,,-99.99,0.0,1-wire,2017-05-29 06:25:00,
2017-05-29 01:30:00,57.5,48.0,29.69,NNW,332,0.0,0.0,70,-99.99,,,-99.99,0.0,1-wire,2017-05-29 06:30:00,
2017-05-29 01:36:00,57.4,48.1,29.69,NNW,332,0.0,0.0,71,-99.99,,,-99.99,0.0,1-wire,2017-05-29 06:36:00,
2017-05-29 01:41:00,57.2,47.8,29.69,NNW,332,0.0,0.0,71,-99.99,,,-99.99,0.0,1-wire,2017-05-29 06:41:00,
2017-05-29 01:46:00,57.3,47.8,29.69,NNW,330,0.0,0.0,71,-99.99,,,-99.99,0.0,1-wire,2017-05-29 06:46:00,
2017-05-29 01:51:00,57.2,48.0,29.69,NNW,330,0.0,0.0,71,-99.99,,,-99.99,0.0,1-wire,2017-05-29 06:51:00,
2017-05-29 01:56:00,57.1,48.0,29.69,NNW,330,0.0,0.0,72,-99.99,,,-99.99,0.4,1-wire,2017-05-29 06:56:00,
2017-05-29 02:01:00,57.0,48.0,29.69,NNW,331,0.0,0.0,72,-99.99,,,-99.99,0.0,1-wire,2017-05-29 07:01:00,
2017-05-29 02:06:00,56.9,47.9,29.69,NNW,331,0.0,0.0,72,-99.99,,,-99.99,0.0,1-wire,2017-05-29 07:06:00,
2017-05-29 02:12:00,56.8,47.9,29.69,NNW,331,0.0,0.0,72,-99.99,,,-99.99,0.3,1-wire,2017-05-29 07:12:00,
2017-05-29 02:17:00,56.9,48.0,29.69,NNW,330,0.0,0.0,72,-99.99,,,-99.99,0.0,1-wire,2017-05-29 07:17:00,
2017-05-29 02:22:00,57.0,47.8,29.69,NNW,330,0.0,0.0,71,-99.99,,,-99.99,0.0,1-wire,2017-05-29 07:22:00,
2017-05-29 02:27:00,56.8,47.8,29.68,NNW,330,0.0,0.0,72,-99.99,,,-99.99,0.0,1-wire,2017-05-29 07:27:00,
2017-05-29 02:30:00,56.9,47.6,29.69,NNW,330,0.0,0.0,71,-99.99,,,-99.99,0.0,1-wire,2017-05-29 07:30:00,
2017-05-29 02:35:00,56.8,47.6,29.68,NNW,330,0.0,0.0,71,-99.99,,,-99.99,0.0,1-wire,2017-05-29 07:35:00,
2017-05-29 02:40:00,56.9,47.5,29.68,NNW,330,0.0,2.0,71,-99.99,,,-99.99,0.0,1-wire,2017-05-29 07:40:00,
2017-05-29 02:45:00,56.7,47.6,29.68,NNW,330,0.0,0.0,71,-99.99,,,-99.99,0.0,1-wire,2017-05-29 07:45:00,
2017-05-29 02:50:00,56.7,47.4,29.68,NNW,330,0.0,0.0,71,-99.99,,,-99.99,0.0,1-wire,2017-05-29 07:50:00,
2017-05-29 02:56:00,56.4,47.6,29.68,NNW,331,0.0,0.0,72,-99.99,,,-99.99,0.0,1-wire,2017-05-29 07:56:00,
2017-05-29 03:01:00,56.4,47.5,29.68,NNW,331,0.0,0.0,72,-99.99,,,-99.99,0.0,1-wire,2017-05-29 08:01:00,
2017-05-29 03:06:00,56.3,47.4,29.68,NNW,331,0.0,0.0,72,-99.99,,,-99.99,0.4,1-wire,2017-05-29 08:06:00,
2017-05-29 03:11:00,56.4,47.2,29.68,NNW,331,0.0,2.0,71,-99.99,,,-99.99,0.0,1-wire,2017-05-29 08:11:00,
2017-05-29 03:17:00,56.6,46.7,29.68,West,272,0.0,0.0,69,-99.99,,,-99.99,0.0,1-wire,2017-05-29 08:17:00,
2017-05-29 03:22:00,56.8,46.8,29.68,West,272,0.0,2.0,69,-99.99,,,-99.99,0.3,1-wire,2017-05-29 08:22:00,
2017-05-29 03:27:00,57.2,46.8,29.68,SW,231,0.0,0.0,68,-99.99,,,-99.99,0.0,1-wire,2017-05-29 08:27:00,
2017-05-29 03:32:00,57.1,46.8,29.69,SW,231,0.0,0.0,68,-99.99,,,-99.99,0.4,1-wire,2017-05-29 08:32:00,
2017-05-29 03:37:00,57.4,46.4,29.68,SW,231,0.0,4.0,67,-99.99,,,-99.99,0.0,1-wire,2017-05-29 08:37:00,
2017-05-29 03:43:00,57.4,46.3,29.68,WSW,239,0.0,2.0,67,-99.99,,,-99.99,0.0,1-wire,2017-05-29 08:43:00,
2017-05-29 03:48:00,57.7,45.6,29.68,WSW,239,1.0,3.0,64,-99.99,,,-99.99,0.0,1-wire,2017-05-29 08:48:00,
2017-05-29 03:54:00,57.6,46.1,29.68,WSW,239,0.0,2.0,65,-99.99,,,-99.99,0.0,1-wire,2017-05-29 08:54:00,
2017-05-29 03:59:00,57.6,45.8,29.69,WSW,238,0.0,2.0,65,-99.99,,,-99.99,0.0,1-wire,2017-05-29 08:59:00,
2017-05-29 04:04:00,57.5,45.9,29.68,WSW,238,0.0,0.0,65,-99.99,,,-99.99,0.0,1-wire,2017-05-29 09:04:00,
2017-05-29 04:09:00,57.6,45.5,29.68,WSW,238,1.0,5.0,64,-99.99,,,-99.99,0.0,1-wire,2017-05-29 09:09:00,
2017-05-29 04:14:00,57.8,45.1,29.68,West,270,1.0,4.0,63,-99.99,,,-99.99,0.0,1-wire,2017-05-29 09:14:00,
2017-05-29 04:19:00,58.0,45.1,29.69,West,270,1.0,2.0,62,-99.99,,,-99.99,0.0,1-wire,2017-05-29 09:19:00,
2017-05-29 04:25:00,58.1,45.6,29.69,West,270,0.0,0.0,63,-99.99,,,-99.99,0.0,1-wire,2017-05-29 09:25:00,
2017-05-29 04:30:00,57.8,45.4,29.69,West,276,0.0,0.0,63,-99.99,,,-99.99,0.0,1-wire,2017-05-29 09:30:00,
2017-05-29 04:35:00,57.8,45.3,29.69,West,276,0.0,0.0,63,-99.99,,,-99.99,0.0,1-wire,2017-05-29 09:35:00,
2017-05-29 04:40:00,57.6,45.6,29.70,West,276,0.0,0.0,64,-99.99,,,-99.99,0.0,1-wire,2017-05-29 09:40:00,
2017-05-29 04:45:00,57.7,48.1,29.71,West,268,0.0,0.0,70,-99.99,,,-99.99,0.4,1-wire,2017-05-29 09:45:00,
2017-05-29 04:50:00,58.1,44.9,29.71,West,268,2.0,4.0,61,-99.99,,,-99.99,0.0,1-wire,2017-05-29 09:50:00,
2017-05-29 04:55:00,58.4,45.2,29.71,West,268,1.0,3.0,61,-99.99,,,-99.99,0.7,1-wire,2017-05-29 09:55:00,
2017-05-29 05:00:00,58.6,45.2,29.71,West,278,0.0,0.0,61,-99.99,,,-99.99,0.0,1-wire,2017-05-29 10:00:00,
2017-05-29 05:05:00,58.5,45.3,29.71,West,278,0.0,1.0,61,-99.99,,,-99.99,0.5,1-wire,2017-05-29 10:05:00,
2017-05-29 05:10:00,58.8,45.9,29.71,West,278,0.0,0.0,62,-99.99,,,-99.99,0.7,1-wire,2017-05-29 10:10:00,
2017-05-29 05:16:00,58.6,45.3,29.72,West,261,0.0,2.0,61,-99.99,,,-99.99,1.8,1-wire,2017-05-29 10:16:00,
2017-05-29 05:21:00,58.5,45.3,29.72,West,261,0.0,2.0,61,-99.99,,,-99.99,2.6,1-wire,2017-05-29 10:21:00,
2017-05-29 05:26:00,58.4,45.0,29.72,West,262,0.0,2.0,61,-99.99,,,-99.99,3.7,1-wire,2017-05-29 10:26:00,
2017-05-29 05:31:00,58.2,45.2,29.73,West,262,0.0,0.0,62,-99.99,,,-99.99,5.6,1-wire,2017-05-29 10:31:00,
2017-05-29 05:36:00,58.0,45.2,29.73,West,262,1.0,4.0,62,-99.99,,,-99.99,7.5,1-wire,2017-05-29 10:36:00,
2017-05-29 05:41:00,57.7,45.5,29.72,West,260,0.0,0.0,64,-99.99,,,-99.99,9.4,1-wire,2017-05-29 10:41:00,
2017-05-29 05:46:00,57.6,45.6,29.74,West,260,0.0,0.0,64,-99.99,,,-99.99,11.3,1-wire,2017-05-29 10:46:00,
2017-05-29 05:51:00,57.1,45.6,29.73,West,260,0.0,2.0,65,-99.99,,,-99.99,18.4,1-wire,2017-05-29 10:51:00,
2017-05-29 05:57:00,57.1,45.8,29.74,West,260,0.0,2.0,66,-99.99,,,-99.99,22.6,1-wire,2017-05-29 10:57:00,
2017-05-29 06:02:00,57.0,45.9,29.74,West,260,0.0,2.0,66,-99.99,,,-99.99,20.7,1-wire,2017-05-29 11:02:00,
2017-05-29 06:08:00,57.1,45.9,29.74,West,260,1.0,3.0,66,-99.99,,,-99.99,32.6,1-wire,2017-05-29 11:08:00,
2017-05-29 06:13:00,57.4,45.8,29.74,West,260,2.0,6.0,65,-99.99,,,-99.99,22.6,1-wire,2017-05-29 11:13:00,
2017-05-29 06:18:00,57.4,45.9,29.74,West,260,1.0,5.0,65,-99.99,,,-99.99,36.9,1-wire,2017-05-29 11:18:00,
2017-05-29 06:23:00,57.6,46.3,29.74,West,260,0.0,0.0,66,-99.99,,,-99.99,18.8,1-wire,2017-05-29 11:23:00,
2017-05-29 06:28:00,57.4,46.1,29.74,West,262,1.0,5.0,66,-99.99,,,-99.99,25.3,1-wire,2017-05-29 11:28:00,
2017-05-29 06:33:00,57.3,46.2,29.74,West,262,0.0,0.0,66,-99.99,,,-99.99,33.1,1-wire,2017-05-29 11:33:00,
2017-05-29 06:38:00,57.7,46.2,29.74,West,262,1.0,4.0,66,-99.99,,,-99.99,33.9,1-wire,2017-05-29 11:38:00,
2017-05-29 06:43:00,57.5,46.3,29.74,WSW,255,1.0,3.0,66,-99.99,,,-99.99,32.0,1-wire,2017-05-29 11:43:00,
2017-05-29 06:48:00,57.9,46.6,29.74,WSW,255,1.0,2.0,66,-99.99,,,-99.99,38.8,1-wire,2017-05-29 11:48:00,
2017-05-29 06:53:00,58.1,46.6,29.74,WSW,255,4.0,5.0,65,-99.99,,,-99.99,38.5,1-wire,2017-05-29 11:53:00,
2017-05-29 07:03:00,58.3,46.7,29.74,West,259,1.0,5.0,65,-99.99,,,-99.99,40.5,1-wire,2017-05-29 12:03:00,
2017-05-29 07:09:00,58.4,47.0,29.75,West,259,1.0,3.0,66,-99.99,,,-99.99,39.6,1-wire,2017-05-29 12:09:00,
2017-05-29 07:14:00,58.6,46.9,29.74,West,260,1.0,3.0,65,-99.99,,,-99.99,41.5,1-wire,2017-05-29 12:14:00,
2017-05-29 07:19:00,58.8,46.8,29.74,West,260,2.0,8.0,64,-99.99,,,-99.99,41.5,1-wire,2017-05-29 12:19:00,
2017-05-29 07:24:00,59.0,46.5,29.74,West,260,4.0,7.0,63,-99.99,,,-99.99,41.9,1-wire,2017-05-29 12:24:00,
2017-05-29 07:29:00,59.0,46.8,29.74,West,266,4.0,9.0,64,-99.99,,,-99.99,44.2,1-wire,2017-05-29 12:29:00,
2017-05-29 07:35:00,59.4,47.0,29.74,West,266,2.0,6.0,63,-99.99,,,-99.99,45.8,1-wire,2017-05-29 12:35:00,
2017-05-29 07:40:00,59.5,47.0,29.74,West,266,4.0,8.0,63,-99.99,,,-99.99,47.4,1-wire,2017-05-29 12:40:00,
2017-05-29 07:46:00,59.7,46.7,29.74,West,273,4.0,8.0,62,-99.99,,,-99.99,80.1,1-wire,2017-05-29 12:46:00,
2017-05-29 07:51:00,60.0,47.1,29.74,West,273,5.0,10.0,62,-99.99,,,-99.99,125.2,1-wire,2017-05-29 12:51:00,
2017-05-29 07:55:00,60.2,47.3,29.74,West,273,4.0,6.0,62,-99.99,,,-99.99,305.0,1-wire,2017-05-29 12:55:00,
2017-05-29 08:01:00,60.6,47.6,29.74,West,268,2.0,6.0,62,-99.99,,,-99.99,336.8,1-wire,2017-05-29 13:01:00,
2017-05-29 08:06:00,60.8,47.7,29.74,West,268,3.0,8.0,62,-99.99,,,-99.99,346.3,1-wire,2017-05-29 13:06:00,
2017-05-29 08:12:00,61.2,47.5,29.74,West,268,1.0,4.0,61,-99.99,,,-99.99,355.1,1-wire,2017-05-29 13:12:00,
2017-05-29 08:17:00,61.6,47.6,29.74,West,264,4.0,6.0,60,-99.99,,,-99.99,366.4,1-wire,2017-05-29 13:17:00,
2017-05-29 08:22:00,62.1,47.7,29.74,West,264,4.0,11.0,59,-99.99,,,-99.99,373.9,1-wire,2017-05-29 13:22:00,
2017-05-29 08:28:00,62.3,48.3,29.74,West,270,0.0,1.0,60,-99.99,,,-99.99,381.4,1-wire,2017-05-29 13:28:00,
2017-05-29 08:33:00,62.4,47.2,29.74,West,270,6.0,12.0,58,-99.99,,,-99.99,391.4,1-wire,2017-05-29 13:33:00,
2017-05-29 08:39:00,62.4,46.6,29.74,West,270,1.0,8.0,56,-99.99,,,-99.99,399.9,1-wire,2017-05-29 13:39:00,
2017-05-29 08:45:00,62.5,46.4,29.74,West,266,6.0,10.0,56,-99.99,,,-99.99,409.4,1-wire,2017-05-29 13:45:00,
2017-05-29 08:51:00,62.9,47.2,29.74,West,266,4.0,9.0,56,-99.99,,,-99.99,418.8,1-wire,2017-05-29 13:51:00,
2017-05-29 08:57:00,63.8,47.9,29.74,West,266,5.0,8.0,56,-99.99,,,-99.99,429.1,1-wire,2017-05-29 13:57:00,
2017-05-29 09:03:00,63.6,47.4,29.74,West,278,4.0,11.0,56,-99.99,,,-99.99,436.8,1-wire,2017-05-29 14:03:00,
2017-05-29 09:08:00,63.8,47.2,29.74,West,278,6.0,11.0,55,-99.99,,,-99.99,446.5,1-wire,2017-05-29 14:08:00,
2017-05-29 09:13:00,63.4,46.9,29.74,West,276,3.0,8.0,55,-99.99,,,-99.99,451.3,1-wire,2017-05-29 14:13:00,
2017-05-29 09:18:00,63.9,46.9,29.74,West,276,4.0,9.0,54,-99.99,,,-99.99,459.5,1-wire,2017-05-29 14:18:00,
2017-05-29 09:23:00,64.3,47.4,29.74,West,276,1.0,5.0,54,-99.99,,,-99.99,463.7,1-wire,2017-05-29 14:23:00,
2017-05-29 09:28:00,64.8,47.9,29.74,West,273,1.0,2.0,54,-99.99,,,-99.99,470.5,1-wire,2017-05-29 14:28:00,
2017-05-29 09:33:00,65.2,47.5,29.74,West,273,3.0,7.0,53,-99.99,,,-99.99,480.1,1-wire,2017-05-29 14:33:00,
2017-05-29 09:38:00,65.3,47.3,29.74,West,273,1.0,5.0,52,-99.99,,,-99.99,482.3,1-wire,2017-05-29 14:38:00,
2017-05-29 09:43:00,65.0,47.4,29.74,West,277,4.0,11.0,53,-99.99,,,-99.99,487.0,1-wire,2017-05-29 14:43:00,
2017-05-29 09:48:00,65.8,47.8,29.74,West,277,4.0,10.0,52,-99.99,,,-99.99,494.6,1-wire,2017-05-29 14:48:00,
2017-05-29 09:54:00,65.5,47.3,29.74,West,277,2.0,9.0,52,-99.99,,,-99.99,499.9,1-wire,2017-05-29 14:54:00,
2017-05-29 10:00:00,65.4,47.4,29.74,WNW,284,3.0,8.0,52,-99.99,,,-99.99,508.1,1-wire,2017-05-29 15:00:00,
2017-05-29 10:06:00,65.9,47.5,29.74,WNW,284,0.0,2.0,52,-99.99,,,-99.99,513.1,1-wire,2017-05-29 15:06:00,
2017-05-29 10:12:00,65.9,46.7,29.75,West,281,8.0,15.0,50,-99.99,,,-99.99,520.7,1-wire,2017-05-29 15:12:00,
2017-05-29 10:18:00,66.4,48.0,29.74,West,281,1.0,2.0,52,-99.99,,,-99.99,526.3,1-wire,2017-05-29 15:18:00,
2017-05-29 10:24:00,67.1,47.8,29.74,West,281,3.0,8.0,50,-99.99,,,-99.99,532.0,1-wire,2017-05-29 15:24:00,
2017-05-29 10:29:00,66.3,47.1,29.75,WNW,283,1.0,4.0,50,-99.99,,,-99.99,546.8,1-wire,2017-05-29 15:29:00,
2017-05-29 10:35:00,66.5,47.5,29.74,WNW,283,2.0,6.0,51,-99.99,,,-99.99,546.5,1-wire,2017-05-29 15:35:00,
2017-05-29 10:40:00,66.9,48.1,29.74,WNW,283,4.0,8.0,51,-99.99,,,-99.99,560.7,1-wire,2017-05-29 15:40:00,
2017-05-29 10:45:00,67.6,49.5,29.75,West,281,2.0,5.0,52,-99.99,,,-99.99,391.6,1-wire,2017-05-29 15:45:00,
2017-05-29 10:50:00,66.9,48.5,29.75,West,281,4.0,8.0,52,-99.99,,,-99.99,230.9,1-wire,2017-05-29 15:50:00,
2017-05-29 10:55:00,66.5,48.4,29.75,West,281,3.0,6.0,52,-99.99,,,-99.99,695.4,1-wire,2017-05-29 15:55:00,
2017-05-29 11:00:00,65.8,47.3,29.75,West,279,4.0,9.0,51,-99.99,,,-99.99,499.0,1-wire,2017-05-29 16:00:00,
2017-05-29 11:05:00,66.1,47.9,29.75,West,279,3.0,6.0,52,-99.99,,,-99.99,308.1,1-wire,2017-05-29 16:05:00,
2017-05-29 11:10:00,66.4,48.5,29.75,West,279,2.0,4.0,52,-99.99,,,-99.99,476.3,1-wire,2017-05-29 16:10:00,
2017-05-29 11:16:00,67.3,48.3,29.75,West,281,3.0,8.0,51,-99.99,,,-99.99,522.3,1-wire,2017-05-29 16:16:00,
2017-05-29 11:21:00,67.6,49.0,29.75,West,281,3.0,9.0,51,-99.99,,,-99.99,294.9,1-wire,2017-05-29 16:21:00,
2017-05-29 11:27:00,66.1,48.3,29.76,WNW,285,4.0,14.0,53,-99.99,,,-99.99,164.1,1-wire,2017-05-29 16:27:00,
2017-05-29 11:33:00,66.0,47.5,29.76,WNW,285,5.0,9.0,51,-99.99,,,-99.99,252.1,1-wire,2017-05-29 16:33:00,
2017-05-29 11:39:00,66.0,47.7,29.76,WNW,285,5.0,9.0,52,-99.99,,,-99.99,185.8,1-wire,2017-05-29 16:39:00,
2017-05-29 11:45:00,65.6,48.2,29.76,WNW,295,2.0,8.0,53,-99.99,,,-99.99,643.9,1-wire,2017-05-29 16:45:00,
2017-05-29 11:50:00,67.0,48.9,29.77,WNW,295,3.0,9.0,52,-99.99,,,-99.99,575.8,1-wire,2017-05-29 16:50:00,
2017-05-29 11:55:00,67.5,47.6,29.76,WNW,295,4.0,10.0,49,-99.99,,,-99.99,518.0,1-wire,2017-05-29 16:55:00,
2017-05-29 12:00:00,66.6,46.9,29.76,West,278,6.0,12.0,49,-99.99,,,-99.99,496.6,1-wire,2017-05-29 17:00:00,
2017-05-29 12:05:00,67.2,47.3,29.77,West,278,5.0,9.0,49,-99.99,,,-99.99,182.0,1-wire,2017-05-29 17:05:00,
2017-05-29 12:11:00,66.8,47.3,29.77,West,281,5.0,9.0,50,-99.99,,,-99.99,210.3,1-wire,2017-05-29 17:11:00,
2017-05-29 12:16:00,66.3,47.6,29.77,West,281,5.0,11.0,51,-99.99,,,-99.99,161.6,1-wire,2017-05-29 17:16:00,
2017-05-29 12:22:00,66.0,47.2,29.77,West,281,6.0,10.0,51,-99.99,,,-99.99,250.9,1-wire,2017-05-29 17:22:00,
2017-05-29 12:27:00,66.6,48.1,29.77,West,281,3.0,6.0,51,-99.99,,,-99.99,586.4,1-wire,2017-05-29 17:27:00,
2017-05-29 12:33:00,67.8,48.4,29.78,West,281,5.0,12.0,50,-99.99,,,-99.99,746.1,1-wire,2017-05-29 17:33:00,
2017-05-29 12:39:00,68.3,48.8,29.78,West,281,3.0,8.0,50,-99.99,,,-99.99,252.8,1-wire,2017-05-29 17:39:00,
2017-05-29 12:44:00,68.7,48.1,29.77,West,276,4.0,9.0,48,-99.99,,,-99.99,540.8,1-wire,2017-05-29 17:44:00,
2017-05-29 12:50:00,69.2,47.6,29.77,West,276,5.0,11.0,46,-99.99,,,-99.99,638.8,1-wire,2017-05-29 17:50:00,
2017-05-29 12:55:00,71.0,48.8,29.78,West,276,5.0,8.0,45,-99.99,,,-99.99,605.6,1-wire,2017-05-29 17:55:00,
2017-05-29 13:00:00,69.6,48.9,29.77,WNW,291,2.0,7.0,48,-99.99,,,-99.99,748.2,1-wire,2017-05-29 18:00:00,
2017-05-29 13:05:00,69.8,48.2,29.78,WNW,291,4.0,10.0,46,-99.99,,,-99.99,689.7,1-wire,2017-05-29 18:05:00,
2017-05-29 13:10:00,68.8,47.5,29.77,WNW,291,5.0,8.0,47,-99.99,,,-99.99,195.8,1-wire,2017-05-29 18:10:00,
2017-05-29 13:15:00,68.7,48.3,29.77,West,277,5.0,9.0,48,-99.99,,,-99.99,466.7,1-wire,2017-05-29 18:15:00,
2017-05-29 13:20:00,68.5,47.9,29.78,West,277,2.0,5.0,48,-99.99,,,-99.99,170.5,1-wire,2017-05-29 18:20:00,
2017-05-29 13:25:00,67.8,47.9,29.78,West,277,3.0,8.0,49,-99.99,,,-99.99,506.5,1-wire,2017-05-29 18:25:00,
2017-05-29 13:30:00,69.4,48.5,29.78,West,281,4.0,8.0,47,-99.99,,,-99.99,293.3,1-wire,2017-05-29 18:30:00,
2017-05-29 13:35:00,67.8,47.8,29.78,West,281,6.0,11.0,49,-99.99,,,-99.99,154.3,1-wire,2017-05-29 18:35:00,
2017-05-29 13:40:00,67.6,48.3,29.78,West,281,1.0,4.0,50,-99.99,,,-99.99,525.7,1-wire,2017-05-29 18:40:00,
2017-05-29 13:45:00,67.2,47.8,29.78,West,278,4.0,6.0,50,-99.99,,,-99.99,213.5,1-wire,2017-05-29 18:45:00,
2017-05-29 13:50:00,66.9,47.2,29.78,West,278,3.0,6.0,49,-99.99,,,-99.99,174.5,1-wire,2017-05-29 18:50:00,
2017-05-29 13:55:00,68.5,47.7,29.78,West,278,4.0,7.0,47,-99.99,,,-99.99,716.1,1-wire,2017-05-29 18:55:00,
2017-05-29 14:01:00,68.6,47.6,29.78,WNW,282,2.0,6.0,47,-99.99,,,-99.99,167.9,1-wire,2017-05-29 19:01:00,
2017-05-29 14:06:00,67.6,48.1,29.78,WNW,282,2.0,6.0,50,-99.99,,,-99.99,128.5,1-wire,2017-05-29 19:06:00,
2017-05-29 14:12:00,67.8,47.0,29.78,West,281,7.0,13.0,47,-99.99,,,-99.99,154.0,1-wire,2017-05-29 19:12:00,
2017-05-29 14:18:00,66.9,46.5,29.78,West,281,6.0,12.0,48,-99.99,,,-99.99,147.7,1-wire,2017-05-29 19:18:00,
2017-05-29 14:24:00,68.3,47.4,29.79,West,281,5.0,11.0,47,-99.99,,,-99.99,399.0,1-wire,2017-05-29 19:24:00,
2017-05-29 14:29:00,68.7,47.1,29.78,West,268,4.0,8.0,46,-99.99,,,-99.99,162.8,1-wire,2017-05-29 19:29:00,
2017-05-29 14:34:00,67.6,47.0,29.79,West,268,4.0,6.0,48,-99.99,,,-99.99,191.1,1-wire,2017-05-29 19:34:00,
2017-05-29 14:40:00,68.2,48.0,29.78,West,268,3.0,12.0,49,-99.99,,,-99.99,249.0,1-wire,2017-05-29 19:40:00,
2017-05-29 14:45:00,67.6,46.2,29.78,West,275,4.0,8.0,46,-99.99,,,-99.99,183.3,1-wire,2017-05-29 19:45:00,
2017-05-29 14:50:00,67.6,47.5,29.78,West,275,0.0,2.0,49,-99.99,,,-99.99,174.8,1-wire,2017-05-29 19:50:00,
2017-05-29 14:57:00,68.1,47.0,29.78,West,275,6.0,10.0,47,-99.99,,,-99.99,305.9,1-wire,2017-05-29 19:57:00,
2017-05-29 15:02:00,68.0,47.6,29.78,West,279,3.0,5.0,48,-99.99,,,-99.99,251.2,1-wire,2017-05-29 20:02:00,
2017-05-29 15:07:00,68.4,47.0,29.79,West,279,5.0,11.0,46,-99.99,,,-99.99,452.8,1-wire,2017-05-29 20:07:00,
2017-05-29 15:12:00,68.9,48.0,29.79,WNW,283,3.0,9.0,47,-99.99,,,-99.99,188.6,1-wire,2017-05-29 20:12:00,
2017-05-29 15:17:00,68.7,47.5,29.78,WNW,283,3.0,6.0,47,-99.99,,,-99.99,191.3,1-wire,2017-05-29 20:17:00,
2017-05-29 15:22:00,69.0,47.1,29.78,WNW,283,6.0,12.0,46,-99.99,,,-99.99,139.6,1-wire,2017-05-29 20:22:00,
2017-05-29 15:27:00,68.5,46.7,29.78,WNW,291,2.0,6.0,46,-99.99,,,-99.99,304.4,1-wire,2017-05-29 20:27:00,
2017-05-29 15:32:00,69.4,46.6,29.78,WNW,291,3.0,7.0,44,-99.99,,,-99.99,197.4,1-wire,2017-05-29 20:32:00,
2017-05-29 15:37:00,68.4,46.0,29.78,WNW,291,7.0,12.0,45,-99.99,,,-99.99,95.9,1-wire,2017-05-29 20:37:00,
2017-05-29 15:43:00,67.5,46.6,29.78,West,281,4.0,8.0,47,-99.99,,,-99.99,103.7,1-wire,2017-05-29 20:43:00,
2017-05-29 15:48:00,67.5,46.4,29.78,West,281,2.0,5.0,47,-99.99,,,-99.99,118.5,1-wire,2017-05-29 20:48:00,
2017-05-29 15:54:00,68.5,46.8,29.78,West,281,2.0,4.0,46,-99.99,,,-99.99,230.5,1-wire,2017-05-29 20:54:00,
2017-05-29 16:00:00,68.5,46.2,29.78,WNW,282,5.0,11.0,45,-99.99,,,-99.99,97.8,1-wire,2017-05-29 21:00:00,
2017-05-29 16:05:00,67.8,47.3,29.78,WNW,282,3.0,8.0,48,-99.99,,,-99.99,100.3,1-wire,2017-05-29 21:05:00,
2017-05-29 16:11:00,68.1,46.5,29.78,West,275,3.0,9.0,46,-99.99,,,-99.99,358.7,1-wire,2017-05-29 21:11:00,
2017-05-29 16:17:00,69.9,47.3,29.78,West,269,3.0,9.0,44,-99.99,,,-99.99,297.7,1-wire,2017-05-29 21:17:00,
2017-05-29 16:22:00,69.7,46.8,29.78,West,269,6.0,12.0,44,-99.99,,,-99.99,146.4,1-wire,2017-05-29 21:22:00,
2017-05-29 16:27:00,68.5,46.3,29.78,West,273,5.0,10.0,45,-99.99,,,-99.99,136.2,1-wire,2017-05-29 21:27:00,
2017-05-29 16:32:00,70.8,46.9,29.78,West,273,4.0,7.0,43,-99.99,,,-99.99,530.1,1-wire,2017-05-29 21:32:00,
2017-05-29 16:38:00,69.6,47.3,29.78,West,273,1.0,5.0,45,-99.99,,,-99.99,77.7,1-wire,2017-05-29 21:38:00,
2017-05-29 16:43:00,69.1,48.3,29.78,West,280,1.0,5.0,48,-99.99,,,-99.99,78.1,1-wire,2017-05-29 21:43:00,
2017-05-29 16:48:00,68.3,47.5,29.78,West,280,1.0,2.0,47,-99.99,,,-99.99,189.4,1-wire,2017-05-29 21:48:00,
2017-05-29 16:53:00,67.7,47.4,29.78,West,280,2.0,5.0,48,-99.99,,,-99.99,90.1,1-wire,2017-05-29 21:53:00,
2017-05-29 16:58:00,67.1,46.8,29.78,West,280,4.0,12.0,48,-99.99,,,-99.99,44.9,1-wire,2017-05-29 21:58:00,
2017-05-29 17:04:00,61.4,51.0,29.79,West,280,3.0,6.0,69,-99.99,,,-99.99,447.5,1-wire,2017-05-29 22:04:00,
2017-05-29 17:09:00,62.8,56.3,29.78,West,280,0.0,2.0,79,-99.99,,,-99.99,459.9,1-wire,2017-05-29 22:09:00,
2017-05-29 17:14:00,63.3,53.8,29.78,West,276,3.0,6.0,71,-99.99,,,-99.99,417.3,1-wire,2017-05-29 22:14:00,
2017-05-29 17:19:00,63.6,53.9,29.78,West,276,3.0,6.0,71,-99.99,,,-99.99,405.2,1-wire,2017-05-29 22:19:00,
2017-05-29 17:24:00,64.6,53.2,29.78,West,276,0.0,1.0,66,-99.99,,,-99.99,404.9,1-wire,2017-05-29 22:24:00,
2017-05-29 17:29:00,64.6,50.6,29.78,West,274,2.0,7.0,61,-99.99,,,-99.99,141.1,1-wire,2017-05-29 22:29:00,
2017-05-29 17:35:00,66.2,50.3,29.78,West,274,0.0,2.0,57,-99.99,,,-99.99,395.8,1-wire,2017-05-29 22:35:00,
2017-05-29 17:40:00,66.7,49.3,29.78,West,274,4.0,6.0,54,-99.99,,,-99.99,367.1,1-wire,2017-05-29 22:40:00,
2017-05-29 17:45:00,67.5,49.4,29.78,West,280,1.0,5.0,52,-99.99,,,-99.99,361.2,1-wire,2017-05-29 22:45:00,
2017-05-29 17:51:00,67.9,48.5,29.78,West,280,4.0,8.0,50,-99.99,,,-99.99,365.6,1-wire,2017-05-29 22:51:00,
2017-05-29 17:56:00,68.2,48.2,29.78,West,280,5.0,9.0,49,-99.99,,,-99.99,357.3,1-wire,2017-05-29 22:56:00,
2017-05-29 18:02:00,68.6,48.4,29.78,West,276,4.0,8.0,49,-99.99,,,-99.99,311.2,1-wire,2017-05-29 23:02:00,
2017-05-29 18:08:00,67.8,48.2,29.78,West,276,1.0,4.0,49,-99.99,,,-99.99,318.0,1-wire,2017-05-29 23:08:00,
2017-05-29 18:13:00,68.5,49.5,29.78,West,272,1.0,4.0,51,-99.99,,,-99.99,319.9,1-wire,2017-05-29 23:13:00,
2017-05-29 18:18:00,68.7,48.9,29.78,West,272,0.0,1.0,49,-99.99,,,-99.99,300.3,1-wire,2017-05-29 23:18:00,
2017-05-29 18:23:00,68.4,48.2,29.78,West,272,2.0,4.0,49,-99.99,,,-99.99,297.3,1-wire,2017-05-29 23:23:00,
2017-05-29 18:28:00,67.2,47.4,29.78,West,275,1.0,5.0,49,-99.99,,,-99.99,47.9,1-wire,2017-05-29 23:28:00,
2017-05-29 18:33:00,66.9,46.6,29.78,West,275,2.0,6.0,48,-99.99,,,-99.99,45.6,1-wire,2017-05-29 23:33:00,
2017-05-29 18:38:00,66.9,47.0,29.78,West,275,0.0,0.0,49,-99.99,,,-99.99,44.8,1-wire,2017-05-29 23:38:00,
2017-05-29 18:43:00,66.8,48.6,29.78,West,276,0.0,0.0,52,-99.99,,,-99.99,12.5,1-wire,2017-05-29 23:43:00,
2017-05-29 18:48:00,66.8,48.2,29.78,West,276,1.0,3.0,51,-99.99,,,-99.99,5.6,1-wire,2017-05-29 23:48:00,
2017-05-29 18:54:00,66.3,48.0,29.78,West,276,1.0,2.0,52,-99.99,,,-99.99,3.3,1-wire,2017-05-29 23:54:00,
2017-05-29 18:59:00,65.6,49.9,29.81,West,276,3.0,15.0,57,-99.99,,,-99.99,2.6,1-wire,2017-05-29 23:59:00,
2017-05-29 19:04:00,56.9,53.6,29.84,West,276,6.0,13.0,89,-99.99,,,-99.99,3.3,1-wire,2017-05-30 00:04:00,
2017-05-29 19:09:00,55.6,54.1,29.82,West,276,2.0,5.0,94,-99.99,,,-99.99,5.6,1-wire,2017-05-30 00:09:00,
2017-05-29 19:14:00,55.4,54.2,29.81,WNW,289,1.0,4.0,96,-99.99,,,-99.99,14.3,1-wire,2017-05-30 00:14:00,
2017-05-29 19:19:00,55.1,53.8,29.80,WNW,289,0.0,0.0,95,-99.99,,,-99.99,39.9,1-wire,2017-05-30 00:19:00,
2017-05-29 19:24:00,55.7,54.4,29.80,WNW,289,0.0,0.0,95,-99.99,,,-99.99,70.9,1-wire,2017-05-30 00:24:00,
2017-05-29 19:29:00,55.9,54.6,29.80,WNW,287,0.0,0.0,95,-99.99,,,-99.99,36.9,1-wire,2017-05-30 00:29:00,
2017-05-29 19:34:00,56.1,54.7,29.80,WNW,287,0.0,0.0,95,-99.99,,,-99.99,16.9,1-wire,2017-05-30 00:34:00,
2017-05-29 19:39:00,55.9,54.6,29.80,WNW,287,0.0,0.0,95,-99.99,,,-99.99,21.8,1-wire,2017-05-30 00:39:00,
2017-05-29 19:44:00,56.1,54.7,29.80,WNW,286,0.0,0.0,95,-99.99,,,-99.99,35.8,1-wire,2017-05-30 00:44:00,
2017-05-29 19:49:00,56.4,54.9,29.80,WNW,286,0.0,0.0,95,-99.99,,,-99.99,29.0,1-wire,2017-05-30 00:49:00,
2017-05-29 19:54:00,56.4,54.8,29.80,WNW,286,0.0,0.0,94,-99.99,,,-99.99,22.6,1-wire,2017-05-30 00:54:00,
2017-05-29 20:00:00,56.4,54.7,29.80,WNW,286,0.0,0.0,94,-99.99,,,-99.99,22.6,1-wire,2017-05-30 01:00:00,
2017-05-29 20:06:00,56.9,55.1,29.81,WNW,286,0.0,0.0,94,-99.99,,,-99.99,20.7,1-wire,2017-05-30 01:06:00,
2017-05-29 20:11:00,57.1,55.4,29.81,WNW,286,0.0,0.0,94,-99.99,,,-99.99,18.4,1-wire,2017-05-30 01:11:00,
2017-05-29 20:16:00,57.4,55.6,29.81,WNW,290,0.0,0.0,94,-99.99,,,-99.99,8.1,1-wire,2017-05-30 01:16:00,
2017-05-29 20:21:00,57.3,55.5,29.81,WNW,290,0.0,0.0,94,-99.99,,,-99.99,3.4,1-wire,2017-05-30 01:21:00,
2017-05-29 20:27:00,57.0,55.3,29.81,WNW,291,0.0,0.0,94,-99.99,,,-99.99,1.8,1-wire,2017-05-30 01:27:00,
2017-05-29 20:32:00,56.9,55.2,29.81,WNW,291,0.0,0.0,94,-99.99,,,-99.99,1.8,1-wire,2017-05-30 01:32:00,
2017-05-29 20:38:00,57.1,55.3,29.81,WNW,291,0.0,0.0,94,-99.99,,,-99.99,0.9,1-wire,2017-05-30 01:38:00,
2017-05-29 20:44:00,56.9,55.1,29.81,WNW,289,0.0,0.0,94,-99.99,,,-99.99,0.3,1-wire,2017-05-30 01:44:00,
2017-05-29 20:49:00,56.9,55.2,29.81,WNW,289,0.0,0.0,94,-99.99,,,-99.99,0.0,1-wire,2017-05-30 01:49:00,
2017-05-29 20:55:00,56.6,54.9,29.82,WNW,289,0.0,0.0,94,-99.99,,,-99.99,0.3,1-wire,2017-05-30 01:55:00,
2017-05-29 20:57:00,56.6,54.9,29.81,WNW,290,0.0,0.0,94,-99.99,,,-99.99,0.0,1-wire,2017-05-30 01:57:00,
2017-05-29 21:02:00,56.5,54.8,29.82,WNW,290,0.0,0.0,94,-99.99,,,-99.99,0.0,1-wire,2017-05-30 02:02:00,
2017-05-29 21:07:00,56.3,54.6,29.82,WNW,290,0.0,0.0,94,-99.99,,,-99.99,0.0,1-wire,2017-05-30 02:07:00,
2017-05-29 21:12:00,56.3,54.6,29.82,WSW,258,0.0,0.0,94,-99.99,,,-99.99,0.0,1-wire,2017-05-30 02:12:00,
2017-05-29 21:17:00,55.9,54.3,29.82,WSW,258,0.0,0.0,94,-99.99,,,-99.99,0.0,1-wire,2017-05-30 02:17:00,
2017-05-29 21:23:00,55.9,54.3,29.82,WSW,258,0.0,0.0,94,-99.99,,,-99.99,0.3,1-wire,2017-05-30 02:23:00,
2017-05-29 21:28:00,55.6,54.0,29.82,WSW,247,0.0,0.0,94,-99.99,,,-99.99,0.0,1-wire,2017-05-30 02:28:00,
2017-05-29 21:33:00,55.5,53.8,29.82,WSW,247,0.0,0.0,94,-99.99,,,-99.99,0.0,1-wire,2017-05-30 02:33:00,
2017-05-29 21:39:00,55.5,53.8,29.82,WSW,247,0.0,0.0,94,-99.99,,,-99.99,0.0,1-wire,2017-05-30 02:39:00,
2017-05-29 21:44:00,55.1,53.3,29.82,WSW,251,0.0,0.0,94,-99.99,,,-99.99,0.0,1-wire,2017-05-30 02:44:00,
2017-05-29 21:49:00,54.8,53.0,29.82,WSW,251,0.0,0.0,94,-99.99,,,-99.99,0.0,1-wire,2017-05-30 02:49:00,
2017-05-29 21:54:00,54.9,53.2,29.82,WSW,251,0.0,0.0,94,-99.99,,,-99.99,0.0,1-wire,2017-05-30 02:54:00,
2017-05-29 22:00:00,54.7,53.0,29.83,WSW,253,0.0,0.0,94,-99.99,,,-99.99,0.0,1-wire,2017-05-30 03:00:00,
2017-05-29 22:05:00,54.9,53.1,29.83,WSW,253,0.0,0.0,94,-99.99,,,-99.99,0.0,1-wire,2017-05-30 03:05:00,
2017-05-29 22:10:00,54.7,52.9,29.83,WSW,253,0.0,0.0,94,-99.99,,,-99.99,0.3,1-wire,2017-05-30 03:10:00,
2017-05-29 22:15:00,54.7,52.9,29.83,WSW,250,0.0,0.0,94,-99.99,,,-99.99,0.0,1-wire,2017-05-30 03:15:00,
2017-05-29 22:20:00,54.3,52.4,29.83,WSW,250,0.0,0.0,93,-99.99,,,-99.99,0.0,1-wire,2017-05-30 03:20:00,
2017-05-29 22:25:00,54.4,52.4,29.83,WSW,250,0.0,0.0,93,-99.99,,,-99.99,0.0,1-wire,2017-05-30 03:25:00,
2017-05-29 22:30:00,54.3,52.3,29.83,WSW,255,0.0,0.0,93,-99.99,,,-99.99,0.0,1-wire,2017-05-30 03:30:00,
2017-05-29 22:35:00,54.2,52.2,29.83,WSW,255,0.0,0.0,93,-99.99,,,-99.99,0.3,1-wire,2017-05-30 03:35:00,
2017-05-29 22:41:00,54.2,52.2,29.83,WSW,255,0.0,0.0,93,-99.99,,,-99.99,0.0,1-wire,2017-05-30 03:41:00,
2017-05-29 22:46:00,54.0,52.0,29.83,WSW,253,0.0,0.0,93,-99.99,,,-99.99,0.0,1-wire,2017-05-30 03:46:00,
2017-05-29 22:51:00,54.0,52.0,29.83,WSW,253,0.0,0.0,93,-99.99,,,-99.99,0.0,1-wire,2017-05-30 03:51:00,
2017-05-29 22:56:00,53.8,51.8,29.83,WSW,253,0.0,0.0,93,-99.99,,,-99.99,0.0,1-wire,2017-05-30 03:56:00,
2017-05-29 23:01:00,54.0,52.1,29.83,WSW,247,0.0,1.0,93,-99.99,,,-99.99,0.0,1-wire,2017-05-30 04:01:00,
2017-05-29 23:06:00,53.8,51.8,29.83,WSW,247,0.0,0.0,93,-99.99,,,-99.99,0.4,1-wire,2017-05-30 04:06:00,
2017-05-29 23:11:00,53.5,51.8,29.83,WSW,247,0.0,0.0,94,-99.99,,,-99.99,0.0,1-wire,2017-05-30 04:11:00,
2017-05-29 23:16:00,53.5,51.9,29.82,WNW,303,0.0,2.0,94,-99.99,,,-99.99,0.0,1-wire,2017-05-30 04:16:00,
2017-05-29 23:21:00,53.6,51.9,29.83,WNW,303,0.0,0.0,94,-99.99,,,-99.99,0.0,1-wire,2017-05-30 04:21:00,
2017-05-29 23:26:00,53.5,51.8,29.83,WNW,303,0.0,0.0,94,-99.99,,,-99.99,0.0,1-wire,2017-05-30 04:26:00,
2017-05-29 23:31:00,53.4,51.7,29.83,WNW,300,0.0,0.0,94,-99.99,,,-99.99,0.0,1-wire,2017-05-30 04:31:00,
2017-05-29 23:37:00,53.4,51.8,29.83,WNW,300,0.0,0.0,94,-99.99,,,-99.99,0.0,1-wire,2017-05-30 04:37:00,
2017-05-29 23:42:00,53.1,51.6,29.82,WNW,295,1.0,6.0,95,-99.99,,,-99.99,0.3,1-wire,2017-05-30 04:42:00,
2017-05-29 23:47:00,53.1,51.8,29.82,WNW,295,1.0,5.0,95,-99.99,,,-99.99,0.0,1-wire,2017-05-30 04:47:00,